< Typhoon 199013 1990 Season Typhoon 199015 >
Typhoon 199014 (ZOLA)
General InformationTrack Information on Google MapsDetailed Wind InformationList of All Images || Disaster Info.ResourceGoogle EarthGE AnimationAtom FeedGeoJSON
Detalied Best Track (Time Zone = UTC)
Year Month Day Hour Lat. Long. Pressure (hPa) Wind (kt) Class Image Chart
1990 8 16 06 16.2 141.8 1000 0 2 Image Chart
1990 8 16 12 17.0 142.0 1000 0 2 Image Chart
1990 8 16 18 17.5 142.5 1000 0 2 Image Chart
1990 8 17 00 17.9 143.0 998 0 2 Image Chart
1990 8 17 06 18.1 143.5 996 35 3 Image Chart
1990 8 17 12 18.2 144.0 994 40 3 Image Chart
1990 8 17 18 18.5 144.5 992 45 3 Image Chart
1990 8 18 00 19.3 145.0 985 50 4 Image Chart
1990 8 18 06 20.0 145.0 985 50 4 Image Chart
1990 8 18 12 20.7 145.1 985 50 4 Image Chart
1990 8 18 18 21.3 145.2 985 50 4 Image Chart
1990 8 19 00 21.8 145.3 985 50 4 Image Chart
1990 8 19 06 22.4 144.3 980 55 4 Image Chart
1990 8 19 12 22.5 143.6 980 55 4 Image Chart
1990 8 19 18 22.6 142.8 975 60 4 Image Chart
1990 8 20 00 23.0 141.9 975 60 4 Image Chart
1990 8 20 06 23.7 140.7 970 65 5 Image Chart
1990 8 20 12 24.6 139.7 965 70 5 Image Chart
1990 8 20 18 25.5 138.2 965 70 5 Image Chart
1990 8 21 00 26.8 136.6 965 70 5 Image Chart
1990 8 21 06 28.3 134.9 960 75 5 Image Chart
1990 8 21 12 29.5 133.5 960 75 5 Image Chart
1990 8 21 18 31.0 132.7 965 70 5 Image Chart
1990 8 22 00 33.0 132.2 970 65 5 Image Chart
1990 8 22 06 36.0 132.8 980 55 4 Image Chart
1990 8 22 12 39.0 134.5 985 45 3 Image Chart
1990 8 22 18 41.5 136.3 990 35 3 Image Chart
1990 8 23 00 43.5 139.0 992 0 2 Image Chart
1990 8 23 03 44.0 140.0 992 0 6 Image Chart
1990 8 23 06 44.0 141.0 992 0 6 Image Chart
Japan Meteorological Agency Best Track Data | Correction Date : 1992-10-21
< Typhoon 199013 1990 Season Typhoon 199015 >

Help